Time;durP1;ratioP1;P1;durP2;ratioP2;P2;SDS_P1;SDS_P2;PMS_P1;PMS_P2;Temp;Humidity;BMP_temperature;BMP_pressure;BME280_temperature;BME280_humidity;BME280_pressure;Samples;Min_cycle;Max_cycle;Signal;HPM_P1;HPM_P2
2022/06/01 00:01:05;;;;;;;7.05;4.30;;;28.00;90.70;;;;;;5103689;28;20016;-48
2022/06/01 00:03:33;;;;;;;10.15;5.05;;;28.10;90.60;;;;;;5103645;28;20091;-51
2022/06/01 00:06:00;;;;;;;9.60;5.25;;;28.10;90.60;;;;;;5103585;28;20212;-51
2022/06/01 00:08:27;;;;;;;8.50;4.95;;;28.00;90.60;;;;;;5105002;28;20100;-52
2022/06/01 00:10:54;;;;;;;8.68;4.88;;;28.00;90.70;;;;;;5107395;28;20316;-51
2022/06/01 00:13:21;;;;;;;14.73;4.97;;;28.00;90.60;;;;;;5107291;28;20058;-51
2022/06/01 00:15:48;;;;;;;7.93;4.97;;;28.00;90.80;;;;;;5107599;28;20069;-51
2022/06/01 00:18:15;;;;;;;10.90;5.05;;;28.00;90.80;;;;;;5107141;28;20387;-52
2022/06/01 00:20:42;;;;;;;10.15;5.45;;;28.10;91.00;;;;;;5107473;28;20065;-54
2022/06/01 00:23:09;;;;;;;12.55;5.53;;;28.10;90.80;;;;;;5107390;28;20024;-54
2022/06/01 00:25:36;;;;;;;10.75;5.53;;;28.20;90.70;;;;;;5107912;28;20012;-54
2022/06/01 00:28:03;;;;;;;12.73;6.13;;;28.30;90.60;;;;;;5107233;28;20016;-54
2022/06/01 00:30:30;;;;;;;12.10;5.53;;;28.30;90.60;;;;;;5107467;28;20087;-58
2022/06/01 00:32:57;;;;;;;12.43;5.40;;;28.30;90.60;;;;;;5107381;28;20016;-54
2022/06/01 00:35:25;;;;;;;13.07;5.90;;;28.40;90.60;;;;;;5104381;28;20044;-56
2022/06/01 00:37:53;;;;;;;15.93;6.88;;;28.40;90.60;;;;;;5104148;28;20024;-51
2022/06/01 00:40:22;;;;;;;26.95;15.10;;;28.40;90.70;;;;;;5105220;28;20019;-55
2022/06/01 00:42:51;;;;;;;22.98;12.80;;;28.40;90.70;;;;;;5105406;28;20024;-54
2022/06/01 00:45:21;;;;;;;27.60;15.98;;;28.40;90.70;;;;;;5105469;28;20020;-55
2022/06/01 00:47:49;;;;;;;16.30;10.70;;;28.40;90.80;;;;;;5105954;28;20061;-54
2022/06/01 00:50:27;;;;;;;19.10;9.38;;;28.40;90.80;;;;;;5107009;28;20030;-62
2022/06/01 00:53:01;;;;;;;16.40;9.65;;;28.40;90.70;;;;;;5107608;28;20023;-54
2022/06/01 00:55:34;;;;;;;40.25;24.27;;;28.40;90.70;;;;;;5107541;28;20020;-57
2022/06/01 00:58:19;;;;;;;45.85;27.50;;;28.40;90.80;;;;;;5107584;28;20239;-54
2022/06/01 01:00:48;;;;;;;32.63;18.70;;;28.40;90.90;;;;;;5107521;28;20097;-55
2022/06/01 01:03:15;;;;;;;24.23;15.27;;;28.40;90.80;;;;;;5088166;28;20024;-54
2022/06/01 01:05:53;;;;;;;21.33;12.57;;;28.40;90.80;;;;;;5106469;28;20016;-59
2022/06/01 01:08:20;;;;;;;20.08;11.10;;;28.40;90.70;;;;;;5107565;28;20012;-56
2022/06/01 01:10:46;;;;;;;18.40;10.45;;;28.40;90.70;;;;;;5107012;28;20092;-52
2022/06/01 01:13:14;;;;;;;17.48;8.75;;;28.40;90.70;;;;;;5107417;28;20084;-60
2022/06/01 01:15:51;;;;;;;17.65;9.15;;;28.40;90.70;;;;;;5107440;28;20079;-58
2022/06/01 01:18:20;;;;;;;15.65;8.43;;;28.40;90.80;;;;;;5107098;28;20031;-54
2022/06/01 01:20:58;;;;;;;11.82;6.75;;;28.40;90.70;;;;;;5106313;28;20020;-55
2022/06/01 01:23:38;;;;;;;9.93;6.35;;;28.40;90.60;;;;;;5107332;28;20053;-55
2022/06/01 01:26:06;;;;;;;10.70;6.18;;;28.40;90.70;;;;;;5107101;28;20039;-58
2022/06/01 01:28:33;;;;;;;10.75;6.78;;;28.40;90.70;;;;;;5107088;28;20020;-55
2022/06/01 01:31:12;;;;;;;13.38;6.97;;;28.40;90.70;;;;;;5106854;28;20272;-55
2022/06/01 01:33:38;;;;;;;10.27;6.32;;;28.40;90.70;;;;;;5106754;28;20023;-54
2022/06/01 01:36:08;;;;;;;10.93;6.13;;;28.40;90.70;;;;;;5106555;28;20081;-56
2022/06/01 01:38:44;;;;;;;8.43;5.50;;;28.30;90.70;;;;;;5106834;28;20048;-56
2022/06/01 01:41:24;;;;;;;10.35;4.70;;;28.30;90.80;;;;;;5107080;28;20168;-55
2022/06/01 01:44:02;;;;;;;7.28;4.95;;;28.30;90.80;;;;;;5106980;28;20028;-57
2022/06/01 01:46:30;;;;;;;6.72;4.32;;;28.30;90.80;;;;;;5106882;28;20016;-55
2022/06/01 01:48:57;;;;;;;5.15;3.92;;;28.30;90.80;;;;;;5101765;28;20139;-49
2022/06/01 01:51:26;;;;;;;4.25;2.88;;;28.30;90.90;;;;;;5104811;28;20024;-50
2022/06/01 01:53:59;;;;;;;9.02;3.70;;;28.20;91.10;;;;;;5089982;28;20565;-51
2022/06/01 01:56:28;;;;;;;6.80;3.30;;;28.00;91.20;;;;;;5096503;28;20095;-49
2022/06/01 01:59:11;;;;;;;6.63;3.58;;;27.90;91.50;;;;;;5098891;28;20031;-52
2022/06/01 02:02:24;;;;;;;8.05;3.55;;;27.80;91.70;;;;;;5096543;28;20050;-52
2022/06/01 02:08:12;;;;;;;7.63;3.25;;;27.80;91.50;;;;;;5047993;28;20146;-53
2022/06/01 02:13:25;;;;;;;9.60;3.90;;;28.00;91.20;;;;;;5083203;28;20034;-56
2022/06/01 02:15:54;;;;;;;8.60;3.35;;;28.00;91.00;;;;;;5083319;28;20034;-53
2022/06/01 02:18:29;;;;;;;6.72;3.13;;;28.00;90.90;;;;;;5083670;28;20028;-53
2022/06/01 02:21:04;;;;;;;6.85;3.50;;;28.00;90.80;;;;;;5085359;28;20012;-55
2022/06/01 02:23:31;;;;;;;7.82;4.00;;;28.10;90.70;;;;;;5085769;28;20197;-54
2022/06/01 02:26:00;;;;;;;8.18;4.10;;;28.00;90.60;;;;;;5085768;28;20065;-54
2022/06/01 02:28:27;;;;;;;7.80;4.38;;;28.10;90.70;;;;;;5085725;28;20031;-54
2022/06/01 02:30:55;;;;;;;6.95;4.20;;;28.00;90.70;;;;;;5085435;28;20024;-56
2022/06/01 02:33:26;;;;;;;9.13;4.43;;;28.00;90.80;;;;;;5085544;28;20028;-54
2022/06/01 02:35:58;;;;;;;7.50;4.15;;;28.00;90.70;;;;;;5085174;28;20047;-54
2022/06/01 02:38:31;;;;;;;7.63;4.55;;;28.00;90.70;;;;;;5084611;28;20029;-55
2022/06/01 02:41:01;;;;;;;9.18;4.65;;;28.00;90.80;;;;;;5085550;28;20017;-55
2022/06/01 02:43:28;;;;;;;16.88;11.35;;;28.00;90.80;;;;;;5085559;28;20020;-58
2022/06/01 02:45:56;;;;;;;11.48;9.13;;;28.10;90.90;;;;;;5085401;28;20243;-54
2022/06/01 02:48:22;;;;;;;10.93;7.90;;;28.00;90.70;;;;;;5085299;28;20024;-55
2022/06/01 02:50:49;;;;;;;10.00;5.75;;;28.10;90.70;;;;;;5084822;28;20019;-59
2022/06/01 02:53:16;;;;;;;9.70;5.70;;;28.00;90.50;;;;;;5085398;28;20020;-56
2022/06/01 02:55:42;;;;;;;8.63;5.40;;;28.00;90.50;;;;;;5085099;28;20086;-57
2022/06/01 02:58:09;;;;;;;7.57;4.85;;;28.00;90.50;;;;;;5085061;28;20024;-54
2022/06/01 03:00:40;;;;;;;9.10;4.70;;;27.90;90.40;;;;;;5085226;28;20027;-55
2022/06/01 03:03:08;;;;;;;10.15;4.60;;;27.90;90.30;;;;;;5085201;28;20035;-55
2022/06/01 03:05:37;;;;;;;7.63;3.80;;;27.90;90.50;;;;;;5085033;28;20283;-54
2022/06/01 03:08:05;;;;;;;8.40;3.70;;;28.00;90.30;;;;;;5084921;28;20369;-54
2022/06/01 03:10:33;;;;;;;8.18;3.00;;;27.90;90.20;;;;;;5084950;28;20227;-55
2022/06/01 03:12:59;;;;;;;6.35;3.17;;;27.90;90.20;;;;;;5084705;28;20020;-58
2022/06/01 03:15:27;;;;;;;8.45;2.53;;;27.90;90.10;;;;;;5085025;28;20036;-54
2022/06/01 03:17:53;;;;;;;6.03;2.72;;;27.90;90.10;;;;;;5084958;28;20055;-57
2022/06/01 03:20:23;;;;;;;4.95;2.30;;;27.90;90.10;;;;;;5084804;28;20021;-54
2022/06/01 03:22:50;;;;;;;6.70;2.10;;;27.90;90.20;;;;;;5084803;28;20020;-56
2022/06/01 03:25:19;;;;;;;5.20;2.00;;;27.90;90.20;;;;;;5084599;28;20051;-53
2022/06/01 03:27:47;;;;;;;4.28;2.25;;;27.90;90.20;;;;;;5084250;28;20016;-57
2022/06/01 03:30:16;;;;;;;4.18;2.00;;;27.80;90.20;;;;;;5084164;28;20291;-54
2022/06/01 03:32:46;;;;;;;7.50;2.10;;;27.80;90.20;;;;;;5082997;28;20021;-52
2022/06/01 03:35:16;;;;;;;5.97;2.22;;;27.80;90.30;;;;;;5096940;28;20056;-55
2022/06/01 03:37:42;;;;;;;4.10;2.00;;;27.80;90.50;;;;;;5080398;28;20024;-56
2022/06/01 03:40:10;;;;;;;5.50;2.10;;;27.70;90.50;;;;;;5090895;28;20036;-52
2022/06/01 03:42:37;;;;;;;6.40;2.25;;;27.70;90.70;;;;;;5103871;28;20035;-57
2022/06/01 03:47:50;;;;;;;6.63;2.47;;;27.60;90.60;;;;;;5095649;28;20030;-57
2022/06/01 03:50:17;;;;;;;4.68;2.20;;;27.60;90.60;;;;;;5093056;28;20019;-56
2022/06/01 03:52:45;;;;;;;4.35;2.42;;;27.60;90.60;;;;;;5097560;28;20020;-57
2022/06/01 03:55:14;;;;;;;5.30;2.90;;;27.70;90.60;;;;;;5100292;28;20020;-56
2022/06/01 03:57:42;;;;;;;7.07;2.90;;;27.60;90.50;;;;;;5097579;28;20047;-54
2022/06/01 04:00:11;;;;;;;5.22;2.20;;;27.70;90.50;;;;;;5102352;28;20299;-57
2022/06/01 04:02:38;;;;;;;6.05;2.38;;;27.70;90.50;;;;;;5107545;28;20046;-56
2022/06/01 04:05:05;;;;;;;4.18;2.13;;;27.60;90.40;;;;;;5108204;28;20078;-58
2022/06/01 04:07:32;;;;;;;4.95;1.80;;;27.60;90.40;;;;;;5107729;28;20051;-57
2022/06/01 04:09:59;;;;;;;4.47;1.88;;;27.60;90.30;;;;;;5107986;28;20323;-55
2022/06/01 04:12:25;;;;;;;5.93;2.20;;;27.60;90.40;;;;;;5107561;28;20095;-55
2022/06/01 04:14:52;;;;;;;4.55;1.80;;;27.60;90.40;;;;;;5107992;28;20024;-56
2022/06/01 04:17:18;;;;;;;8.00;1.85;;;27.60;90.40;;;;;;5094906;28;20045;-55
2022/06/01 04:19:45;;;;;;;4.45;1.83;;;27.60;90.40;;;;;;5093232;28;20017;-56
2022/06/01 04:22:13;;;;;;;6.28;2.15;;;27.60;90.40;;;;;;5087201;28;20066;-55
2022/06/01 04:24:40;;;;;;;8.40;1.95;;;27.60;90.40;;;;;;5087526;28;20028;-54
2022/06/01 04:27:07;;;;;;;4.25;1.80;;;27.60;90.40;;;;;;5087350;28;20020;-57
2022/06/01 04:29:34;;;;;;;5.35;2.00;;;27.60;90.40;;;;;;5087545;28;20086;-54
2022/06/01 04:32:14;;;;;;;4.05;1.60;;;27.50;90.30;;;;;;5086858;28;20021;-56
2022/06/01 04:34:40;;;;;;;3.58;1.60;;;27.50;90.30;;;;;;5086971;28;20284;-55
2022/06/01 04:37:08;;;;;;;4.45;1.83;;;27.50;90.30;;;;;;5086796;28;20024;-58
2022/06/01 04:39:34;;;;;;;7.35;1.80;;;27.50;90.30;;;;;;5087214;28;20363;-57
2022/06/01 04:42:01;;;;;;;5.68;2.05;;;27.50;90.30;;;;;;5086851;28;20028;-56
2022/06/01 04:44:28;;;;;;;4.57;1.70;;;27.50;90.30;;;;;;5087135;28;20292;-57
2022/06/01 04:46:54;;;;;;;3.70;1.63;;;27.50;90.30;;;;;;5087255;28;20233;-54
2022/06/01 04:49:21;;;;;;;4.68;1.65;;;27.50;90.30;;;;;;5098582;28;20028;-57
2022/06/01 04:51:47;;;;;;;4.15;1.70;;;27.50;90.30;;;;;;5095961;28;20028;-57
2022/06/01 04:54:14;;;;;;;6.13;1.83;;;27.50;90.30;;;;;;5106385;28;20016;-58
2022/06/01 04:56:40;;;;;;;3.83;1.70;;;27.50;90.40;;;;;;5106101;28;20027;-58
2022/06/01 04:59:07;;;;;;;3.60;2.00;;;27.40;90.40;;;;;;5107040;28;20020;-56
2022/06/01 05:01:34;;;;;;;4.75;1.90;;;27.40;90.40;;;;;;5106633;28;20020;-53
2022/06/01 05:04:00;;;;;;;6.32;1.77;;;27.40;90.40;;;;;;5106628;28;20047;-53
2022/06/01 05:06:27;;;;;;;5.10;1.77;;;27.40;90.50;;;;;;5106730;28;20027;-54
2022/06/01 05:08:53;;;;;;;4.30;2.00;;;27.30;90.40;;;;;;5106717;28;20057;-54
2022/06/01 05:11:20;;;;;;;4.68;1.92;;;27.30;90.50;;;;;;5106510;28;20080;-54
2022/06/01 05:13:47;;;;;;;5.53;1.88;;;27.30;90.50;;;;;;5106643;28;20241;-57
2022/06/01 05:16:14;;;;;;;5.35;2.20;;;27.30;90.50;;;;;;5106221;28;20023;-60
2022/06/01 05:18:41;;;;;;;4.03;1.88;;;27.30;90.60;;;;;;5106679;28;20292;-55
2022/06/01 05:21:28;;;;;;;6.85;1.80;;;27.30;90.70;;;;;;5106290;28;20035;-56
2022/06/01 05:23:54;;;;;;;6.47;1.80;;;27.30;90.70;;;;;;5106579;28;20012;-54
2022/06/01 05:26:21;;;;;;;6.40;1.95;;;27.30;90.70;;;;;;5106378;28;20027;-56
2022/06/01 05:28:47;;;;;;;4.18;1.80;;;27.20;90.70;;;;;;5106244;28;20016;-54
2022/06/01 05:31:15;;;;;;;4.03;1.90;;;27.20;90.70;;;;;;5105990;28;20020;-54
2022/06/01 05:33:46;;;;;;;5.15;1.70;;;27.20;90.70;;;;;;5106452;28;20055;-58
2022/06/01 05:36:14;;;;;;;3.80;1.85;;;27.20;90.70;;;;;;5105817;28;20040;-55
2022/06/01 05:38:42;;;;;;;6.43;1.90;;;27.20;90.80;;;;;;5106254;28;20027;-57
2022/06/01 05:41:09;;;;;;;5.65;1.77;;;27.20;90.80;;;;;;5106250;28;20203;-54
2022/06/01 05:43:36;;;;;;;4.18;1.67;;;27.10;90.80;;;;;;5106045;28;20016;-55
2022/06/01 05:46:03;;;;;;;3.65;1.92;;;27.10;90.80;;;;;;5106049;28;20016;-54
2022/06/01 05:48:30;;;;;;;7.70;1.80;;;27.10;90.80;;;;;;5105996;28;20292;-56
2022/06/01 05:50:57;;;;;;;3.13;1.73;;;27.20;90.80;;;;;;5105818;28;20008;-55
2022/06/01 05:53:24;;;;;;;6.60;2.05;;;27.20;90.80;;;;;;5105852;28;20054;-57
2022/06/01 05:55:51;;;;;;;4.78;1.88;;;27.10;90.80;;;;;;5105753;28;20043;-55
2022/06/01 05:58:26;;;;;;;5.90;1.98;;;27.10;90.90;;;;;;5105572;28;20330;-54
2022/06/01 06:00:54;;;;;;;5.65;1.95;;;27.10;90.90;;;;;;5105661;28;20042;-55
2022/06/01 06:03:25;;;;;;;5.88;2.28;;;27.00;91.00;;;;;;5105652;28;20020;-53
2022/06/01 06:08:37;;;;;;;5.20;2.35;;;27.00;91.00;;;;;;5105720;28;20058;-56
2022/06/01 06:11:06;;;;;;;4.93;2.13;;;27.00;91.10;;;;;;5105320;28;20126;-55
2022/06/01 06:13:36;;;;;;;5.97;2.20;;;27.00;91.00;;;;;;5105611;28;20107;-56
2022/06/01 06:16:04;;;;;;;6.82;2.30;;;27.00;91.00;;;;;;5105294;28;20016;-52
2022/06/01 06:18:31;;;;;;;5.18;2.10;;;27.00;91.00;;;;;;5105410;28;20024;-55
2022/06/01 06:20:58;;;;;;;4.97;2.20;;;27.00;91.00;;;;;;5104537;28;20024;-54
2022/06/01 06:23:24;;;;;;;6.07;2.33;;;27.00;91.00;;;;;;5105416;28;20046;-52
2022/06/01 06:25:51;;;;;;;6.63;2.17;;;27.00;91.10;;;;;;5105270;28;20044;-56
2022/06/01 06:28:17;;;;;;;5.03;2.22;;;27.00;91.10;;;;;;5105326;28;20028;-53
2022/06/01 06:30:44;;;;;;;3.50;2.10;;;27.00;91.10;;;;;;5105156;28;20020;-57
2022/06/01 06:33:11;;;;;;;3.83;2.10;;;27.00;91.10;;;;;;5105065;28;20415;-53
2022/06/01 06:35:37;;;;;;;4.97;2.47;;;27.00;91.20;;;;;;5104973;28;20036;-59
2022/06/01 06:38:05;;;;;;;6.43;2.03;;;26.90;91.20;;;;;;5104952;28;20032;-54
2022/06/01 06:40:32;;;;;;;4.15;2.10;;;26.90;91.30;;;;;;5104753;28;20047;-58
2022/06/01 06:42:58;;;;;;;4.97;2.08;;;26.90;91.20;;;;;;5108461;28;20043;-54
2022/06/01 06:45:25;;;;;;;4.70;2.08;;;26.90;91.20;;;;;;5102441;28;20222;-55
2022/06/01 06:47:52;;;;;;;3.88;2.30;;;26.90;91.20;;;;;;5104650;28;20019;-53
2022/06/01 06:50:21;;;;;;;6.88;3.20;;;26.90;91.20;;;;;;5104658;28;20024;-56
2022/06/01 06:52:47;;;;;;;10.13;3.22;;;26.90;91.20;;;;;;5104462;28;20065;-53
2022/06/01 06:55:14;;;;;;;5.65;3.03;;;26.90;91.20;;;;;;5104951;28;20023;-54
2022/06/01 06:57:43;;;;;;;9.65;2.92;;;26.90;91.20;;;;;;5104754;28;20020;-59
2022/06/01 07:00:11;;;;;;;11.52;3.13;;;26.80;91.20;;;;;;5104731;28;20040;-56
2022/06/01 07:02:37;;;;;;;7.38;3.15;;;26.80;91.20;;;;;;5114414;28;20020;-55
2022/06/01 07:05:04;;;;;;;5.85;3.03;;;26.80;91.20;;;;;;5125324;28;20028;-57
2022/06/01 07:07:31;;;;;;;4.22;3.00;;;26.80;91.10;;;;;;5124768;28;20020;-55
2022/06/01 07:09:58;;;;;;;7.82;2.80;;;26.80;91.10;;;;;;5125429;28;20043;-54
2022/06/01 07:12:24;;;;;;;5.28;2.97;;;26.80;91.20;;;;;;5111751;28;20087;-53
2022/06/01 07:14:51;;;;;;;6.80;3.08;;;26.80;91.10;;;;;;5115480;28;20030;-55
2022/06/01 07:17:18;;;;;;;7.18;2.47;;;26.80;91.10;;;;;;5124540;28;20012;-55
2022/06/01 07:19:44;;;;;;;7.13;2.80;;;26.80;91.10;;;;;;5124759;28;20043;-55
2022/06/01 07:22:11;;;;;;;7.60;2.65;;;26.80;91.10;;;;;;5124470;28;20188;-54
2022/06/01 07:24:37;;;;;;;8.10;2.70;;;26.70;91.10;;;;;;5125192;28;20065;-55
2022/06/01 07:27:04;;;;;;;5.45;2.42;;;26.80;91.10;;;;;;5124570;28;20019;-55
2022/06/01 07:29:31;;;;;;;6.05;2.50;;;26.70;91.10;;;;;;5125300;28;20212;-55
2022/06/01 07:31:57;;;;;;;8.65;2.67;;;26.70;91.10;;;;;;5124288;28;20077;-53
2022/06/01 07:34:24;;;;;;;8.20;2.60;;;26.70;91.10;;;;;;5124443;28;20039;-54
2022/06/01 07:36:50;;;;;;;6.00;2.50;;;26.70;91.10;;;;;;5124441;28;20038;-54
2022/06/01 07:44:53;;;;;;;5.72;2.40;;;26.70;91.10;;;;;;5124953;28;20030;-60
2022/06/01 07:47:21;;;;;;;4.13;2.10;;;26.70;91.10;;;;;;5124394;28;20020;-54
2022/06/01 07:49:48;;;;;;;5.82;2.33;;;26.70;91.10;;;;;;5124639;28;20051;-55
2022/06/01 07:52:14;;;;;;;6.18;2.55;;;26.70;91.10;;;;;;5124130;28;20027;-55
2022/06/01 07:54:43;;;;;;;6.28;2.45;;;26.60;91.10;;;;;;5124705;28;20068;-55
2022/06/01 07:57:11;;;;;;;6.95;2.42;;;26.60;91.20;;;;;;5124307;28;20080;-59
2022/06/01 07:59:37;;;;;;;5.25;2.45;;;26.60;91.20;;;;;;5124953;28;20031;-56
2022/06/01 08:02:09;;;;;;;5.05;2.40;;;26.60;91.20;;;;;;5124405;28;20022;-56
2022/06/01 08:04:37;;;;;;;5.05;2.42;;;26.60;91.20;;;;;;5124378;28;20308;-57
2022/06/01 08:07:04;;;;;;;5.38;2.45;;;26.60;91.20;;;;;;5124216;28;20295;-57
2022/06/01 08:09:31;;;;;;;6.65;2.47;;;26.60;91.20;;;;;;5124546;28;20035;-56
2022/06/01 08:14:42;;;;;;;6.57;2.53;;;26.60;91.20;;;;;;5124621;28;20238;-54
2022/06/01 08:17:09;;;;;;;5.03;2.35;;;26.60;91.20;;;;;;5123967;28;20304;-55
2022/06/01 08:19:35;;;;;;;7.72;2.33;;;26.60;91.20;;;;;;5124128;28;20027;-56
2022/06/01 08:22:02;;;;;;;6.72;2.22;;;26.50;91.10;;;;;;5124057;28;20019;-56
2022/06/01 08:24:30;;;;;;;4.38;2.55;;;26.50;91.20;;;;;;5124189;28;20028;-55
2022/06/01 08:26:56;;;;;;;8.30;2.45;;;26.50;91.20;;;;;;5123873;28;20388;-56
2022/06/01 08:29:23;;;;;;;6.43;2.45;;;26.50;91.20;;;;;;5125298;28;20204;-56
2022/06/01 08:31:49;;;;;;;4.93;2.53;;;26.50;91.10;;;;;;5127640;28;20019;-54
2022/06/01 08:34:16;;;;;;;7.47;2.47;;;26.50;91.10;;;;;;5127945;28;20101;-55
2022/06/01 08:36:43;;;;;;;5.78;2.30;;;26.50;91.10;;;;;;5127711;28;20203;-54
2022/06/01 08:39:10;;;;;;;7.50;2.65;;;26.40;91.00;;;;;;5127878;28;20019;-54
2022/06/01 08:41:39;;;;;;;5.35;2.33;;;26.40;91.00;;;;;;5127533;28;20031;-54
2022/06/01 08:44:33;;;;;;;6.32;2.60;;;26.40;91.00;;;;;;5127662;28;20076;-57
2022/06/01 08:47:26;;;;;;;5.40;2.63;;;26.40;91.00;;;;;;5110598;28;20075;-54
2022/06/01 08:49:56;;;;;;;3.65;2.25;;;26.40;90.90;;;;;;5127336;28;20032;-55
2022/06/01 08:52:24;;;;;;;6.05;2.30;;;26.40;90.90;;;;;;5127213;28;20023;-56
2022/06/01 08:54:51;;;;;;;6.30;2.50;;;26.40;90.90;;;;;;5127845;28;20026;-55
2022/06/01 08:57:29;;;;;;;8.20;2.90;;;26.40;90.90;;;;;;5127151;28;20303;-56
2022/06/01 09:00:10;;;;;;;4.97;2.78;;;26.30;90.80;;;;;;5127735;28;20027;-55
2022/06/01 09:02:48;;;;;;;7.38;2.78;;;26.40;90.70;;;;;;5127010;28;20260;-54
2022/06/01 09:05:33;;;;;;;6.03;2.60;;;26.30;90.70;;;;;;5127309;28;20042;-55
2022/06/01 09:08:07;;;;;;;8.38;2.78;;;26.30;90.70;;;;;;5124300;28;20019;-56
2022/06/01 09:10:53;;;;;;;8.73;2.38;;;26.30;90.60;;;;;;5122541;28;20039;-57
2022/06/01 09:13:25;;;;;;;5.05;2.60;;;26.30;90.50;;;;;;5126886;28;20046;-57
2022/06/01 09:15:56;;;;;;;6.13;2.60;;;26.30;90.40;;;;;;5126848;28;20022;-56
2022/06/01 09:18:27;;;;;;;9.38;2.58;;;26.30;90.50;;;;;;5126860;28;20027;-56
2022/06/01 09:23:40;;;;;;;4.28;2.50;;;26.30;90.50;;;;;;5126877;28;20027;-56
2022/06/01 09:26:07;;;;;;;8.52;3.00;;;26.30;90.60;;;;;;5126778;28;20111;-56
2022/06/01 09:28:43;;;;;;;6.60;2.75;;;26.30;90.60;;;;;;5126988;28;20383;-55
2022/06/01 09:31:24;;;;;;;5.72;2.95;;;26.30;90.70;;;;;;5126502;28;20024;-56
2022/06/01 09:33:50;;;;;;;6.75;2.83;;;26.30;90.70;;;;;;5126467;28;20027;-56
2022/06/01 09:36:27;;;;;;;8.20;3.20;;;26.30;90.60;;;;;;5126628;28;20023;-58
2022/06/01 09:38:59;;;;;;;8.05;3.30;;;26.30;90.90;;;;;;5126783;28;20026;-55
2022/06/01 09:41:31;;;;;;;7.45;3.17;;;26.20;90.60;;;;;;5125643;28;20027;-55
2022/06/01 09:44:02;;;;;;;;;;;26.20;90.60;;;;;;5127059;28;20026;-55
2022/06/01 09:46:34;;;;;;;5.80;3.00;;;26.20;90.60;;;;;;5126381;28;19900;-56
2022/06/01 09:49:24;;;;;;;9.48;3.42;;;26.20;90.60;;;;;;5126451;28;20042;-56
2022/06/01 09:52:15;;;;;;;6.78;2.60;;;26.20;90.60;;;;;;5126186;28;20258;-54
2022/06/01 09:54:54;;;;;;;5.63;2.65;;;26.20;90.70;;;;;;5126332;28;20027;-57
2022/06/01 09:57:28;;;;;;;5.38;2.80;;;26.20;90.70;;;;;;5125999;28;20027;-56
2022/06/01 10:08:30;;;;;;;8.55;3.00;;;26.10;90.60;;;;;;5126117;28;20095;-56
2022/06/01 10:11:06;;;;;;;8.38;3.17;;;26.10;90.70;;;;;;5125608;28;20072;-58
2022/06/01 10:14:00;;;;;;;5.72;2.72;;;26.10;90.60;;;;;;5126016;28;20084;-56
2022/06/01 10:16:51;;;;;;;7.20;2.90;;;26.10;90.70;;;;;;5125401;28;20027;-56
2022/06/01 10:19:23;;;;;;;7.63;2.80;;;26.10;90.70;;;;;;5125893;28;20026;-57
2022/06/01 10:21:53;;;;;;;5.88;3.08;;;26.10;90.70;;;;;;5125618;28;20019;-57
2022/06/01 10:25:02;;;;;;;7.25;3.30;;;26.10;90.70;;;;;;5125820;28;20031;-58
2022/06/01 10:27:40;;;;;;;8.45;3.28;;;26.10;90.70;;;;;;5104121;28;20023;-55
2022/06/01 10:30:28;;;;;;;8.30;3.50;;;26.10;90.70;;;;;;5125459;28;20019;-58
2022/06/01 10:33:10;;;;;;;7.13;3.40;;;26.00;90.70;;;;;;5125458;28;20308;-58
2022/06/01 10:35:45;;;;;;;6.85;3.50;;;26.00;90.70;;;;;;5125614;28;20044;-57
2022/06/01 10:38:23;;;;;;;6.18;3.97;;;26.00;90.80;;;;;;5125185;28;20024;-54
2022/06/01 10:41:02;;;;;;;13.27;4.30;;;26.00;90.80;;;;;;5125322;28;20019;-57
2022/06/01 10:43:45;;;;;;;11.35;4.43;;;26.00;90.80;;;;;;5125326;28;20292;-55
2022/06/01 10:46:24;;;;;;;9.63;4.35;;;26.00;90.90;;;;;;5124982;28;20024;-55
2022/06/01 10:49:16;;;;;;;11.25;4.43;;;26.00;90.90;;;;;;5124903;28;20380;-55
2022/06/01 10:51:45;;;;;;;10.15;4.57;;;26.00;90.90;;;;;;5072084;28;20035;-57
2022/06/01 10:54:31;;;;;;;10.77;4.22;;;26.00;90.90;;;;;;5125265;28;20031;-57
2022/06/01 10:56:58;;;;;;;10.43;4.72;;;26.00;90.90;;;;;;5124863;28;20012;-56
2022/06/01 10:59:25;;;;;;;12.73;4.40;;;26.00;90.90;;;;;;5125348;28;20042;-59
2022/06/01 11:02:04;;;;;;;16.33;6.30;;;26.00;90.90;;;;;;5124985;28;20015;-57
2022/06/01 11:04:37;;;;;;;15.05;6.28;;;26.00;90.90;;;;;;5125397;28;20027;-58
2022/06/01 11:07:31;;;;;;;15.48;7.40;;;26.00;90.90;;;;;;5124770;28;20303;-54
2022/06/01 11:10:06;;;;;;;14.50;8.93;;;26.10;90.90;;;;;;5125062;28;20055;-54
2022/06/01 11:13:03;;;;;;;18.95;10.88;;;26.10;90.90;;;;;;5124681;28;20019;-58
2022/06/01 11:15:45;;;;;;;15.05;8.50;;;26.10;90.90;;;;;;5124821;28;20030;-56
2022/06/01 11:18:20;;;;;;;18.30;7.40;;;26.20;90.90;;;;;;5120584;28;20027;-55
2022/06/01 11:20:57;;;;;;;11.05;6.38;;;26.20;90.80;;;;;;5122320;28;20015;-56
2022/06/01 11:24:02;;;;;;;12.02;5.82;;;26.20;90.70;;;;;;5124992;28;20038;-55
2022/06/01 11:26:34;;;;;;;11.38;5.30;;;26.30;90.70;;;;;;5124622;28;20083;-57
2022/06/01 11:29:07;;;;;;;11.65;5.00;;;26.30;90.60;;;;;;5125109;28;20098;-54
2022/06/01 11:31:36;;;;;;;9.55;4.57;;;26.30;90.50;;;;;;5122908;28;20310;-55
2022/06/01 11:34:12;;;;;;;9.45;4.60;;;26.40;90.50;;;;;;5122582;28;20027;-55
2022/06/01 11:37:01;;;;;;;10.98;4.30;;;26.60;90.40;;;;;;5122637;28;20023;-57
2022/06/01 11:39:32;;;;;;;6.88;3.70;;;26.70;90.10;;;;;;5123068;28;20421;-56
2022/06/01 11:42:18;;;;;;;9.77;3.53;;;27.00;89.90;;;;;;5122985;28;20068;-58
2022/06/01 11:45:00;;;;;;;7.95;3.60;;;27.10;89.50;;;;;;5123809;28;20088;-55
2022/06/01 11:47:35;;;;;;;8.25;3.20;;;27.10;89.20;;;;;;5124411;28;20039;-56
2022/06/01 11:50:05;;;;;;;7.93;3.10;;;27.10;89.10;;;;;;5125172;28;20113;-57
2022/06/01 11:52:33;;;;;;;11.38;2.90;;;27.10;89.30;;;;;;5124746;28;20026;-56
2022/06/01 11:55:21;;;;;;;7.88;2.83;;;27.00;89.40;;;;;;5125096;28;20212;-55
2022/06/01 11:58:15;;;;;;;6.78;2.60;;;27.00;89.60;;;;;;5124579;28;20023;-55
2022/06/01 12:00:51;;;;;;;6.57;2.80;;;27.00;89.80;;;;;;5074900;28;20024;-55
2022/06/01 12:03:18;;;;;;;5.45;2.60;;;27.00;89.70;;;;;;5124149;28;20031;-57
2022/06/01 12:06:08;;;;;;;6.47;2.53;;;27.00;90.10;;;;;;5127605;28;20019;-53
2022/06/01 12:08:43;;;;;;;7.43;2.65;;;27.00;89.40;;;;;;5128890;28;20061;-56
2022/06/01 12:11:33;;;;;;;6.22;3.00;;;27.10;89.40;;;;;;5128454;28;20024;-57
2022/06/01 12:14:00;;;;;;;12.32;3.00;;;27.10;89.40;;;;;;5128405;28;20339;-56
2022/06/01 12:16:29;;;;;;;8.02;2.85;;;27.20;89.40;;;;;;5128200;28;20015;-55
2022/06/01 12:18:59;;;;;;;6.25;2.70;;;27.20;89.40;;;;;;5128372;28;20330;-55
2022/06/01 12:21:25;;;;;;;6.10;2.92;;;27.30;89.40;;;;;;5128127;28;20046;-55
2022/06/01 12:28:31;;;;;;;5.70;2.47;;;27.40;89.30;;;;;;5127931;28;20018;-55
2022/06/01 12:30:05;;;;;;;6.88;3.17;;;27.50;89.20;;;;;;5128215;28;20070;-57
2022/06/01 12:33:00;;;;;;;4.95;2.88;;;27.50;89.30;;;;;;5127934;28;20203;-55
2022/06/01 12:35:39;;;;;;;6.22;2.55;;;27.50;89.30;;;;;;5128105;28;20054;-54
2022/06/01 12:38:17;;;;;;;5.30;2.70;;;27.60;89.40;;;;;;5124080;28;20024;-56
2022/06/01 12:40:59;;;;;;;3.65;2.30;;;27.60;89.40;;;;;;5124765;28;20082;-54
2022/06/01 12:43:27;;;;;;;8.65;2.50;;;27.60;89.40;;;;;;5121487;28;20024;-55
2022/06/01 12:45:55;;;;;;;6.85;2.85;;;27.70;89.50;;;;;;5125835;28;20020;-55
2022/06/01 12:48:23;;;;;;;8.10;2.58;;;27.70;89.10;;;;;;5127936;28;20027;-55
2022/06/01 12:51:01;;;;;;;6.30;2.33;;;27.80;89.20;;;;;;5127238;28;20027;-55
2022/06/01 12:53:43;;;;;;;6.15;2.63;;;27.80;89.00;;;;;;5127567;28;20199;-61
2022/06/01 12:56:18;;;;;;;8.82;2.55;;;27.90;89.00;;;;;;5127751;28;20020;-56
2022/06/01 12:58:48;;;;;;;5.45;2.20;;;27.90;88.60;;;;;;5127659;28;20019;-56
2022/06/01 13:01:18;;;;;;;4.15;2.10;;;27.90;87.90;;;;;;5127527;28;20027;-56
2022/06/01 13:03:50;;;;;;;5.65;2.22;;;27.90;87.90;;;;;;5127309;28;20330;-54
2022/06/01 13:06:26;;;;;;;4.10;1.98;;;28.00;87.80;;;;;;5127301;28;20030;-58
2022/06/01 13:09:05;;;;;;;5.60;2.10;;;28.00;87.80;;;;;;5127630;28;20109;-55
2022/06/01 13:11:33;;;;;;;5.07;2.20;;;28.00;87.50;;;;;;5127015;28;20027;-57
2022/06/01 13:14:06;;;;;;;3.55;1.80;;;28.00;87.90;;;;;;5127591;28;20019;-59
2022/06/01 13:16:45;;;;;;;4.55;2.47;;;28.00;88.00;;;;;;5125913;28;20092;-57
2022/06/01 13:19:27;;;;;;;4.55;2.60;;;28.10;88.60;;;;;;5127295;28;20023;-55
2022/06/01 13:22:19;;;;;;;5.90;2.40;;;28.10;88.20;;;;;;5127807;28;20327;-56
2022/06/01 13:24:53;;;;;;;6.20;2.15;;;28.10;88.20;;;;;;5127351;28;20172;-56
2022/06/01 13:27:20;;;;;;;5.35;1.90;;;28.10;88.30;;;;;;5126907;28;20073;-55
2022/06/01 13:29:52;;;;;;;3.50;2.17;;;28.10;88.20;;;;;;5127278;28;20027;-55
2022/06/01 13:32:26;;;;;;;3.67;1.95;;;28.10;88.30;;;;;;5126528;28;20215;-58
2022/06/01 13:34:55;;;;;;;3.58;2.05;;;28.20;88.20;;;;;;5127211;28;20116;-55
2022/06/01 13:37:25;;;;;;;3.88;2.30;;;28.10;88.10;;;;;;5127001;28;20308;-56
2022/06/01 13:40:21;;;;;;;3.25;1.90;;;28.20;88.00;;;;;;5126979;28;20031;-56
2022/06/01 13:42:51;;;;;;;3.70;1.90;;;28.20;88.10;;;;;;5126721;28;20375;-57